Time;durP1;ratioP1;P1;durP2;ratioP2;P2;SDS_P1;SDS_P2;PMS_P1;PMS_P2;Temp;Humidity;BMP_temperature;BMP_pressure;BME280_temperature;BME280_humidity;BME280_pressure;Samples;Min_cycle;Max_cycle;Signal;HPM_P1;HPM_P2
2022/04/13 00:07:15;;;;;;;15.9;25.4;;;;;;;1.6;68.3;99210;;;;
2022/04/13 00:18:15;;;;;;;15.9;25.4;;;;;;;1.4;69.6;99210;;;;
2022/04/13 00:29:15;;;;;;;12.4;18.3;;;;;;;1.4;70.5;99210;;;;
2022/04/13 00:39:15;;;;;;;12.4;18.3;;;;;;;1.2;70.5;99220;;;;
2022/04/13 00:50:15;;;;;;;12.4;18.3;;;;;;;1.3;71.9;99230;;;;
2022/04/13 01:00:15;;;;;;;12.4;17.2;;;;;;;1.1;72.8;99220;;;;
2022/04/13 01:10:15;;;;;;;12.4;17.2;;;;;;;1;73.4;99220;;;;
2022/04/13 01:21:17;;;;;;;12.4;17.2;;;;;;;1;75.3;99210;;;;
2022/04/13 01:31:15;;;;;;;14.3;21.1;;;;;;;0.9;74.9;99200;;;;
2022/04/13 01:42:15;;;;;;;14.3;21.1;;;;;;;0.8;75.5;99200;;;;
2022/04/13 01:53:15;;;;;;;13.3;20.1;;;;;;;0.6;74.9;99210;;;;
2022/04/13 02:04:15;;;;;;;13.3;20.1;;;;;;;0.5;75.1;99200;;;;
2022/04/13 02:14:15;;;;;;;13.3;20.1;;;;;;;0.4;75.1;99200;;;;
2022/04/13 02:25:15;;;;;;;14.9;25;;;;;;;0.2;75.2;99200;;;;
2022/04/13 02:35:15;;;;;;;14.9;25;;;;;;;0.1;75.7;99200;;;;
2022/04/13 02:45:15;;;;;;;14.9;25;;;;;;;0;76.1;99210;;;;
2022/04/13 02:55:15;;;;;;;15.3;20.9;;;;;;;-0.1;76;99220;;;;
2022/04/13 03:05:15;;;;;;;15.3;20.9;;;;;;;-0.2;76.6;99210;;;;
2022/04/13 03:16:15;;;;;;;15.3;20.9;;;;;;;-0.2;79.7;99210;;;;
2022/04/13 03:26:15;;;;;;;18.6;28.3;;;;;;;-0.2;80.5;99210;;;;
2022/04/13 03:37:15;;;;;;;18.6;28.3;;;;;;;-0.2;80.7;99220;;;;
2022/04/13 03:48:15;;;;;;;18.6;28.3;;;;;;;-0.2;80.9;99230;;;;
2022/04/13 03:58:15;;;;;;;20.3;29.2;;;;;;;-0.3;80.8;99230;;;;
2022/04/13 04:08:15;;;;;;;20.3;29.2;;;;;;;-0.2;79.8;99240;;;;
2022/04/13 04:19:15;;;;;;;20.3;29.2;;;;;;;-0.2;79.6;99240;;;;
2022/04/13 04:29:15;;;;;;;20.4;26.4;;;;;;;-0.1;80;99240;;;;
2022/04/13 04:40:15;;;;;;;20.4;26.4;;;;;;;0;80.4;99240;;;;
2022/04/13 04:50:15;;;;;;;20.4;26.4;;;;;;;0.3;79.8;99260;;;;
2022/04/13 05:00:15;;;;;;;21.2;32.6;;;;;;;0.6;79.1;99270;;;;
2022/04/13 05:11:15;;;;;;;21.2;32.6;;;;;;;1.2;77.4;99270;;;;
2022/04/13 05:22:15;;;;;;;24.5;36.2;;;;;;;1.8;75.9;99280;;;;
2022/04/13 05:32:15;;;;;;;24.5;36.2;;;;;;;2.1;74.5;99280;;;;
2022/04/13 05:43:15;;;;;;;24.5;36.2;;;;;;;2.8;72.9;99290;;;;
2022/04/13 05:54:16;;;;;;;22.4;26.3;;;;;;;3.4;71;99290;;;;
2022/04/13 06:04:16;;;;;;;22.4;26.3;;;;;;;3.9;69.5;99290;;;;
2022/04/13 06:15:15;;;;;;;22.4;26.3;;;;;;;4.5;67.8;99300;;;;
2022/04/13 06:26:15;;;;;;;24.5;30.3;;;;;;;5.2;66.3;99310;;;;
2022/04/13 06:36:15;;;;;;;24.5;30.3;;;;;;;5.9;65.2;99320;;;;
2022/04/13 06:46:15;;;;;;;24.5;30.3;;;;;;;6.5;63;99310;;;;
2022/04/13 06:57:15;;;;;;;21.7;28.8;;;;;;;7.1;61.3;99320;;;;
2022/04/13 07:08:15;;;;;;;21.7;28.8;;;;;;;7.8;59.9;99320;;;;
2022/04/13 07:19:15;;;;;;;21.7;28.8;;;;;;;8.3;58.5;99330;;;;
2022/04/13 07:30:15;;;;;;;19.9;25.8;;;;;;;8.9;56.4;99330;;;;
2022/04/13 07:41:15;;;;;;;19.9;25.8;;;;;;;9.4;54;99330;;;;
2022/04/13 07:51:15;;;;;;;13.8;18.9;;;;;;;10;52.9;99320;;;;
2022/04/13 08:02:15;;;;;;;13.8;18.9;;;;;;;10.6;51.1;99320;;;;
2022/04/13 08:12:16;;;;;;;13.8;18.9;;;;;;;10.9;49.1;99320;;;;
2022/04/13 08:23:15;;;;;;;8.3;11.6;;;;;;;11.3;49.3;99320;;;;
2022/04/13 08:33:15;;;;;;;8.3;11.6;;;;;;;11.7;49.7;99310;;;;
2022/04/13 08:43:15;;;;;;;8.3;11.6;;;;;;;12.1;48.5;99310;;;;
2022/04/13 08:53:15;;;;;;;11;16.2;;;;;;;12.1;48.3;99300;;;;
2022/04/13 09:03:15;;;;;;;11;16.2;;;;;;;12.4;48.8;99310;;;;
2022/04/13 09:14:15;;;;;;;11;16.2;;;;;;;12.7;45.7;99310;;;;
2022/04/13 09:25:15;;;;;;;8.8;12.3;;;;;;;13.1;45;99310;;;;
2022/04/13 09:35:15;;;;;;;8.8;12.3;;;;;;;13.2;43.6;99310;;;;
2022/04/13 09:45:15;;;;;;;8.8;12.3;;;;;;;13.5;44;99300;;;;
2022/04/13 09:56:15;;;;;;;6.2;9.7;;;;;;;13.7;41.7;99290;;;;
2022/04/13 10:06:15;;;;;;;6.2;9.7;;;;;;;14.1;40.3;99280;;;;
2022/04/13 10:17:15;;;;;;;6.2;9.7;;;;;;;14.1;40.8;99280;;;;
2022/04/13 10:28:15;;;;;;;6;9.7;;;;;;;14.5;39.1;99280;;;;
2022/04/13 10:38:15;;;;;;;6;9.7;;;;;;;14.7;37.9;99270;;;;
2022/04/13 10:48:15;;;;;;;6;9.7;;;;;;;14.6;36.2;99270;;;;
2022/04/13 10:59:15;;;;;;;5.5;8.1;;;;;;;14.9;35.6;99260;;;;
2022/04/13 11:10:16;;;;;;;5.5;8.1;;;;;;;15.4;36.7;99250;;;;
2022/04/13 11:21:15;;;;;;;4.9;8.3;;;;;;;15.2;37.1;99240;;;;
2022/04/13 11:32:15;;;;;;;4.9;8.3;;;;;;;15.6;35;99250;;;;
2022/04/13 11:42:15;;;;;;;4.9;8.3;;;;;;;15.6;34.5;99250;;;;
2022/04/13 11:53:16;;;;;;;4.1;6.2;;;;;;;15.9;35.3;99260;;;;
2022/04/13 12:03:15;;;;;;;4.1;6.2;;;;;;;15.9;34.1;99250;;;;
2022/04/13 12:13:15;;;;;;;4.1;6.2;;;;;;;16.1;33.9;99250;;;;
2022/04/13 12:24:15;;;;;;;4.2;6.9;;;;;;;16.4;32;99220;;;;
2022/04/13 12:34:15;;;;;;;4.2;6.9;;;;;;;16.4;32.9;99200;;;;
2022/04/13 12:44:15;;;;;;;4.2;6.9;;;;;;;16.6;32.5;99180;;;;
2022/04/13 12:55:16;;;;;;;4.3;7.4;;;;;;;17;32.7;99180;;;;
2022/04/13 13:06:15;;;;;;;4.3;7.4;;;;;;;17.5;30.8;99160;;;;
2022/04/13 13:16:15;;;;;;;4.3;7.4;;;;;;;18.1;30.7;99160;;;;
2022/04/13 13:27:15;;;;;;;3.6;8.3;;;;;;;18.1;29.9;99160;;;;
2022/04/13 13:38:17;;;;;;;3.6;8.3;;;;;;;18.2;29.5;99140;;;;
2022/04/13 13:48:15;;;;;;;3.6;8.3;;;;;;;18.2;28.6;99140;;;;
2022/04/13 13:59:15;;;;;;;4.1;9.7;;;;;;;17.9;29.6;99150;;;;
2022/04/13 14:10:15;;;;;;;4.1;9.7;;;;;;;18.3;29;99150;;;;
2022/04/13 14:20:15;;;;;;;3.6;7.2;;;;;;;18.1;29.2;99140;;;;
2022/04/13 14:30:18;;;;;;;3.6;7.2;;;;;;;17.9;29.7;99130;;;;
2022/04/13 14:40:15;;;;;;;3.6;7.2;;;;;;;17.6;30.2;99120;;;;
2022/04/13 14:51:15;;;;;;;3.5;8.4;;;;;;;17.4;31.6;99130;;;;
2022/04/13 15:01:15;;;;;;;3.5;8.4;;;;;;;17.4;30.9;99140;;;;
2022/04/13 15:12:15;;;;;;;3.5;8.4;;;;;;;17;31.2;99130;;;;
2022/04/13 15:23:15;;;;;;;3.9;10.4;;;;;;;16.6;32.8;99130;;;;
2022/04/13 15:33:16;;;;;;;3.9;10.4;;;;;;;16.4;33.4;99140;;;;
2022/04/13 15:43:15;;;;;;;3.9;10.4;;;;;;;16.1;34.5;99140;;;;
2022/04/13 15:54:15;;;;;;;4.3;8;;;;;;;15.5;34.8;99140;;;;
2022/04/13 16:05:18;;;;;;;4.3;8;;;;;;;15.2;35.4;99150;;;;
2022/04/13 16:15:15;;;;;;;4.3;8;;;;;;;15.1;35.7;99150;;;;
2022/04/13 16:26:15;;;;;;;4.7;7.6;;;;;;;14.7;36.3;99150;;;;
2022/04/13 16:36:15;;;;;;;4.7;7.6;;;;;;;14.2;37.3;99160;;;;
2022/04/13 16:47:15;;;;;;;4.7;7.6;;;;;;;13.8;36.3;99170;;;;
2022/04/13 16:57:15;;;;;;;5.9;9.6;;;;;;;13.3;36.7;99170;;;;
2022/04/13 17:07:15;;;;;;;5.9;9.6;;;;;;;13;37.6;99170;;;;
2022/04/13 17:17:15;;;;;;;5.9;9.6;;;;;;;12.7;35.9;99160;;;;
2022/04/13 17:27:15;;;;;;;5.8;11.1;;;;;;;12.4;36.5;99160;;;;
2022/04/13 17:37:15;;;;;;;5.8;11.1;;;;;;;12;36.9;99170;;;;
2022/04/13 17:48:15;;;;;;;5.8;11.1;;;;;;;11.6;37.5;99170;;;;
2022/04/13 17:59:22;;;;;;;10.5;18.6;;;;;;;11.2;38.6;99170;;;;
2022/04/13 18:09:16;;;;;;;10.5;18.6;;;;;;;11.2;38.1;99170;;;;
2022/04/13 18:19:17;;;;;;;10.5;18.6;;;;;;;10.7;39.6;99180;;;;
2022/04/13 18:29:15;;;;;;;11.2;16.6;;;;;;;10.3;40.4;99190;;;;
2022/04/13 18:40:15;;;;;;;11.2;16.6;;;;;;;9.9;41.1;99210;;;;
2022/04/13 18:50:15;;;;;;;16;19.7;;;;;;;9.6;41.7;99210;;;;
2022/04/13 19:01:15;;;;;;;16;19.7;;;;;;;9.4;43.6;99210;;;;
2022/04/13 19:12:16;;;;;;;16;19.7;;;;;;;9.2;44.9;99210;;;;
2022/04/13 19:22:15;;;;;;;17.9;24.5;;;;;;;9.2;45.1;99210;;;;
2022/04/13 19:32:17;;;;;;;17.9;24.5;;;;;;;9;44.9;99200;;;;
2022/04/13 19:43:15;;;;;;;17.9;24.5;;;;;;;8.8;44.9;99200;;;;
2022/04/13 19:53:15;;;;;;;23.4;30.7;;;;;;;8.6;45.5;99200;;;;
2022/04/13 20:04:15;;;;;;;23.4;30.7;;;;;;;8.3;45.8;99210;;;;
2022/04/13 20:15:15;;;;;;;23.4;30.7;;;;;;;8.1;48.3;99210;;;;
2022/04/13 20:25:15;;;;;;;26.6;36.1;;;;;;;7.9;48.8;99210;;;;
2022/04/13 20:36:15;;;;;;;26.6;36.1;;;;;;;7.7;48.9;99210;;;;
2022/04/13 20:47:15;;;;;;;26.6;36.1;;;;;;;7.5;49.6;99200;;;;
2022/04/13 20:57:15;;;;;;;38.6;48.6;;;;;;;7.4;50.6;99210;;;;
2022/04/13 21:08:17;;;;;;;38.6;48.6;;;;;;;7.3;51.2;99210;;;;
2022/04/13 21:18:15;;;;;;;38.6;48.6;;;;;;;7.1;52.4;99200;;;;
2022/04/13 21:28:15;;;;;;;29.7;37.8;;;;;;;7.1;53.3;99200;;;;
2022/04/13 21:38:15;;;;;;;29.7;37.8;;;;;;;6.8;51.7;99200;;;;
2022/04/13 21:49:15;;;;;;;24.1;28.1;;;;;;;6.7;52.3;99200;;;;
2022/04/13 21:59:15;;;;;;;24.1;28.1;;;;;;;6.5;53.9;99190;;;;
2022/04/13 22:09:15;;;;;;;24.1;28.1;;;;;;;6.5;55.1;99180;;;;
2022/04/13 22:20:15;;;;;;;25;31.8;;;;;;;6.4;56.2;99180;;;;
2022/04/13 22:30:15;;;;;;;25;31.8;;;;;;;6.2;56.3;99170;;;;
2022/04/13 22:40:15;;;;;;;25;31.8;;;;;;;6.1;58.3;99170;;;;
2022/04/13 22:51:15;;;;;;;27.7;35.6;;;;;;;6.1;58.8;99160;;;;
2022/04/13 23:02:15;;;;;;;27.7;35.6;;;;;;;6.2;59.8;99170;;;;
2022/04/13 23:13:15;;;;;;;27.7;35.6;;;;;;;6.1;57.8;99160;;;;
2022/04/13 23:23:15;;;;;;;29.7;37.2;;;;;;;6;59;99150;;;;
2022/04/13 23:33:15;;;;;;;29.7;37.2;;;;;;;5.9;59.4;99150;;;;
2022/04/13 23:44:15;;;;;;;29.7;37.2;;;;;;;5.8;59.5;99140;;;;
2022/04/13 23:55:15;;;;;;;27.2;33.8;;;;;;;5.5;58.5;99140;;;;
